sensor_id;sensor_type;location;lat;lon;timestamp;pressure;altitude;pressure_sealevel;temperature;humidity
53635;BME280;39542;-34.932;138.594;2023-04-09T00:00:23;101227.21;;;20.14;59.09
53635;BME280;39542;-34.932;138.594;2023-04-09T00:01:03;101227.03;;;20.14;59.01
53635;BME280;39542;-34.932;138.594;2023-04-09T00:01:37;101230.10;;;20.16;59.02
53635;BME280;39542;-34.932;138.594;2023-04-09T00:02:12;101229.83;;;20.15;59.07
53635;BME280;39542;-34.932;138.594;2023-04-09T00:02:46;101228.83;;;20.16;59.08
53635;BME280;39542;-34.932;138.594;2023-04-09T00:03:21;101228.33;;;20.16;59.09
53635;BME280;39542;-34.932;138.594;2023-04-09T00:03:55;101225.59;;;20.17;59.03
53635;BME280;39542;-34.932;138.594;2023-04-09T00:04:29;101226.80;;;20.17;59.03
53635;BME280;39542;-34.932;138.594;2023-04-09T00:05:04;101226.01;;;20.16;59.12
53635;BME280;39542;-34.932;138.594;2023-04-09T00:05:40;101225.67;;;20.18;59.10
53635;BME280;39542;-34.932;138.594;2023-04-09T00:06:14;101226.85;;;20.19;59.07
53635;BME280;39542;-34.932;138.594;2023-04-09T00:06:49;101227.82;;;20.18;59.08
53635;BME280;39542;-34.932;138.594;2023-04-09T00:07:23;101223.83;;;20.18;59.07
53635;BME280;39542;-34.932;138.594;2023-04-09T00:07:57;101224.63;;;20.18;59.11
53635;BME280;39542;-34.932;138.594;2023-04-09T00:08:32;101225.18;;;20.18;59.16
53635;BME280;39542;-34.932;138.594;2023-04-09T00:09:06;101222.56;;;20.19;59.17
53635;BME280;39542;-34.932;138.594;2023-04-09T00:09:40;101223.40;;;20.20;59.08
53635;BME280;39542;-34.932;138.594;2023-04-09T00:10:15;101225.58;;;20.20;59.08
53635;BME280;39542;-34.932;138.594;2023-04-09T00:10:49;101223.78;;;20.19;59.12
53635;BME280;39542;-34.932;138.594;2023-04-09T00:11:24;101224.10;;;20.20;59.21
53635;BME280;39542;-34.932;138.594;2023-04-09T00:11:58;101223.03;;;20.20;59.20
53635;BME280;39542;-34.932;138.594;2023-04-09T00:12:33;101220.18;;;20.21;59.11
53635;BME280;39542;-34.932;138.594;2023-04-09T00:13:07;101223.67;;;20.21;59.10
53635;BME280;39542;-34.932;138.594;2023-04-09T00:13:41;101222.49;;;20.22;59.13
53635;BME280;39542;-34.932;138.594;2023-04-09T00:14:16;101221.27;;;20.23;59.27
53635;BME280;39542;-34.932;138.594;2023-04-09T00:14:51;101220.85;;;20.24;59.25
53635;BME280;39542;-34.932;138.594;2023-04-09T00:15:25;101220.22;;;20.24;59.29
53635;BME280;39542;-34.932;138.594;2023-04-09T00:15:59;101219.18;;;20.24;59.31
53635;BME280;39542;-34.932;138.594;2023-04-09T00:16:33;101219.92;;;20.25;59.19
53635;BME280;39542;-34.932;138.594;2023-04-09T00:17:08;101220.39;;;20.25;59.21
53635;BME280;39542;-34.932;138.594;2023-04-09T00:17:42;101218.29;;;20.27;59.24
53635;BME280;39542;-34.932;138.594;2023-04-09T00:18:17;101220.11;;;20.25;59.41
53635;BME280;39542;-34.932;138.594;2023-04-09T00:18:51;101218.87;;;20.25;59.48
53635;BME280;39542;-34.932;138.594;2023-04-09T00:19:25;101219.76;;;20.25;59.48
53635;BME280;39542;-34.932;138.594;2023-04-09T00:19:59;101215.38;;;20.25;59.63
53635;BME280;39542;-34.932;138.594;2023-04-09T00:20:34;101213.60;;;20.26;59.56
53635;BME280;39542;-34.932;138.594;2023-04-09T00:21:08;101214.39;;;20.26;59.65
53635;BME280;39542;-34.932;138.594;2023-04-09T00:21:42;101215.62;;;20.27;59.67
53635;BME280;39542;-34.932;138.594;2023-04-09T00:22:16;101214.37;;;20.27;59.73
53635;BME280;39542;-34.932;138.594;2023-04-09T00:22:50;101215.41;;;20.27;59.71
53635;BME280;39542;-34.932;138.594;2023-04-09T00:23:24;101216.27;;;20.28;59.68
53635;BME280;39542;-34.932;138.594;2023-04-09T00:23:59;101216.56;;;20.28;59.66
53635;BME280;39542;-34.932;138.594;2023-04-09T00:24:33;101215.13;;;20.28;59.76
53635;BME280;39542;-34.932;138.594;2023-04-09T00:25:08;101215.96;;;20.28;59.82
53635;BME280;39542;-34.932;138.594;2023-04-09T00:25:42;101216.43;;;20.28;59.83
53635;BME280;39542;-34.932;138.594;2023-04-09T00:26:17;101218.30;;;20.28;59.83
53635;BME280;39542;-34.932;138.594;2023-04-09T00:26:51;101215.58;;;20.28;59.71
53635;BME280;39542;-34.932;138.594;2023-04-09T00:27:26;101215.94;;;20.29;59.75
53635;BME280;39542;-34.932;138.594;2023-04-09T00:28:00;101218.20;;;20.30;59.74
53635;BME280;39542;-34.932;138.594;2023-04-09T00:28:34;101217.63;;;20.29;59.78
53635;BME280;39542;-34.932;138.594;2023-04-09T00:29:09;101215.66;;;20.28;59.71
53635;BME280;39542;-34.932;138.594;2023-04-09T00:29:43;101216.10;;;20.29;59.56
53635;BME280;39542;-34.932;138.594;2023-04-09T00:30:17;101214.41;;;20.28;59.64
53635;BME280;39542;-34.932;138.594;2023-04-09T00:30:52;101213.78;;;20.27;59.52
53635;BME280;39542;-34.932;138.594;2023-04-09T00:31:26;101213.58;;;20.26;59.53
53635;BME280;39542;-34.932;138.594;2023-04-09T00:32:00;101213.53;;;20.26;59.48
53635;BME280;39542;-34.932;138.594;2023-04-09T00:32:35;101211.87;;;20.27;59.39
53635;BME280;39542;-34.932;138.594;2023-04-09T00:33:09;101212.16;;;20.28;59.33
53635;BME280;39542;-34.932;138.594;2023-04-09T00:33:44;101211.01;;;20.29;59.20
53635;BME280;39542;-34.932;138.594;2023-04-09T00:34:18;101212.09;;;20.29;59.09
53635;BME280;39542;-34.932;138.594;2023-04-09T00:34:52;101210.09;;;20.31;59.09
53635;BME280;39542;-34.932;138.594;2023-04-09T00:35:27;101209.79;;;20.31;59.03
53635;BME280;39542;-34.932;138.594;2023-04-09T00:36:01;101212.33;;;20.31;59.01
53635;BME280;39542;-34.932;138.594;2023-04-09T00:36:35;101212.55;;;20.31;58.95
53635;BME280;39542;-34.932;138.594;2023-04-09T00:37:09;101212.22;;;20.32;58.94
53635;BME280;39542;-34.932;138.594;2023-04-09T00:37:43;101212.66;;;20.31;58.93
53635;BME280;39542;-34.932;138.594;2023-04-09T00:38:18;101215.09;;;20.30;59.02
53635;BME280;39542;-34.932;138.594;2023-04-09T00:38:52;101214.85;;;20.29;59.23
53635;BME280;39542;-34.932;138.594;2023-04-09T00:39:26;101214.66;;;20.28;59.35
53635;BME280;39542;-34.932;138.594;2023-04-09T00:40:01;101215.66;;;20.29;59.43
53635;BME280;39542;-34.932;138.594;2023-04-09T00:40:35;101214.49;;;20.28;59.44
53635;BME280;39542;-34.932;138.594;2023-04-09T00:41:10;101214.47;;;20.28;59.55
53635;BME280;39542;-34.932;138.594;2023-04-09T00:41:44;101215.11;;;20.28;59.58
53635;BME280;39542;-34.932;138.594;2023-04-09T00:42:18;101215.12;;;20.27;59.68
53635;BME280;39542;-34.932;138.594;2023-04-09T00:42:52;101216.30;;;20.26;59.73
53635;BME280;39542;-34.932;138.594;2023-04-09T00:43:27;101219.36;;;20.30;59.73
53635;BME280;39542;-34.932;138.594;2023-04-09T00:44:01;101218.88;;;20.28;59.83
53635;BME280;39542;-34.932;138.594;2023-04-09T00:44:36;101216.43;;;20.28;59.93
53635;BME280;39542;-34.932;138.594;2023-04-09T00:45:10;101218.46;;;20.29;59.98
53635;BME280;39542;-34.932;138.594;2023-04-09T00:45:45;101217.06;;;20.30;59.99
53635;BME280;39542;-34.932;138.594;2023-04-09T00:46:19;101219.07;;;20.29;59.93
53635;BME280;39542;-34.932;138.594;2023-04-09T00:46:54;101218.92;;;20.33;59.83
53635;BME280;39542;-34.932;138.594;2023-04-09T00:47:31;101222.09;;;20.32;59.89
53635;BME280;39542;-34.932;138.594;2023-04-09T00:48:07;101219.68;;;20.32;59.87
53635;BME280;39542;-34.932;138.594;2023-04-09T00:48:42;101221.30;;;20.30;59.88
53635;BME280;39542;-34.932;138.594;2023-04-09T00:49:16;101219.72;;;20.30;59.84
53635;BME280;39542;-34.932;138.594;2023-04-09T00:49:50;101220.64;;;20.31;59.84
53635;BME280;39542;-34.932;138.594;2023-04-09T00:50:24;101220.95;;;20.30;59.91
53635;BME280;39542;-34.932;138.594;2023-04-09T00:50:59;101221.94;;;20.30;60.02
53635;BME280;39542;-34.932;138.594;2023-04-09T00:51:33;101220.99;;;20.31;60.00
53635;BME280;39542;-34.932;138.594;2023-04-09T00:52:08;101217.80;;;20.30;59.96
53635;BME280;39542;-34.932;138.594;2023-04-09T00:52:42;101219.29;;;20.30;59.84
53635;BME280;39542;-34.932;138.594;2023-04-09T00:53:17;101218.38;;;20.30;59.90
53635;BME280;39542;-34.932;138.594;2023-04-09T00:53:51;101216.59;;;20.31;59.89
53635;BME280;39542;-34.932;138.594;2023-04-09T00:54:26;101216.91;;;20.32;60.04
53635;BME280;39542;-34.932;138.594;2023-04-09T00:55:02;101215.25;;;20.33;60.09
53635;BME280;39542;-34.932;138.594;2023-04-09T00:55:38;101215.82;;;20.32;60.15
53635;BME280;39542;-34.932;138.594;2023-04-09T00:56:14;101215.24;;;20.32;59.96
53635;BME280;39542;-34.932;138.594;2023-04-09T00:56:49;101215.11;;;20.32;59.89
53635;BME280;39542;-34.932;138.594;2023-04-09T00:57:24;101214.36;;;20.32;59.83
53635;BME280;39542;-34.932;138.594;2023-04-09T00:57:58;101214.22;;;20.31;59.73
53635;BME280;39542;-34.932;138.594;2023-04-09T00:58:33;101213.09;;;20.32;59.69
53635;BME280;39542;-34.932;138.594;2023-04-09T00:59:08;101209.28;;;20.32;59.84
53635;BME280;39542;-34.932;138.594;2023-04-09T00:59:43;101211.08;;;20.33;59.83
53635;BME280;39542;-34.932;138.594;2023-04-09T01:00:17;101207.29;;;20.32;59.77
53635;BME280;39542;-34.932;138.594;2023-04-09T01:00:51;101209.35;;;20.34;59.72
53635;BME280;39542;-34.932;138.594;2023-04-09T01:01:25;101209.14;;;20.33;59.79
53635;BME280;39542;-34.932;138.594;2023-04-09T01:01:59;101208.06;;;20.33;59.82
53635;BME280;39542;-34.932;138.594;2023-04-09T01:02:34;101209.13;;;20.31;59.92
53635;BME280;39542;-34.932;138.594;2023-04-09T01:03:09;101207.03;;;20.30;59.91
53635;BME280;39542;-34.932;138.594;2023-04-09T01:03:43;101210.17;;;20.34;59.68
53635;BME280;39542;-34.932;138.594;2023-04-09T01:04:18;101210.19;;;20.32;59.81
53635;BME280;39542;-34.932;138.594;2023-04-09T01:04:52;101211.59;;;20.30;59.85
53635;BME280;39542;-34.932;138.594;2023-04-09T01:05:35;101212.14;;;20.32;59.84
53635;BME280;39542;-34.932;138.594;2023-04-09T01:06:16;101211.55;;;20.32;59.76
53635;BME280;39542;-34.932;138.594;2023-04-09T01:07:02;101214.32;;;20.33;59.83
53635;BME280;39542;-34.932;138.594;2023-04-09T01:07:45;101213.81;;;20.32;59.74
53635;BME280;39542;-34.932;138.594;2023-04-09T01:08:29;101212.79;;;20.31;59.76
53635;BME280;39542;-34.932;138.594;2023-04-09T01:09:09;101214.30;;;20.32;59.83
53635;BME280;39542;-34.932;138.594;2023-04-09T01:09:52;101215.32;;;20.31;59.81
53635;BME280;39542;-34.932;138.594;2023-04-09T01:10:31;101215.56;;;20.32;59.76
53635;BME280;39542;-34.932;138.594;2023-04-09T01:11:19;101213.06;;;20.32;59.76
53635;BME280;39542;-34.932;138.594;2023-04-09T01:12:05;101215.43;;;20.32;59.77
53635;BME280;39542;-34.932;138.594;2023-04-09T01:12:50;101214.92;;;20.38;60.47
53635;BME280;39542;-34.932;138.594;2023-04-09T01:13:33;101214.38;;;20.39;61.05
53635;BME280;39542;-34.932;138.594;2023-04-09T01:14:16;101213.99;;;20.29;60.46
53635;BME280;39542;-34.932;138.594;2023-04-09T01:14:58;101210.64;;;20.31;59.92
53635;BME280;39542;-34.932;138.594;2023-04-09T01:15:40;101211.88;;;20.36;59.91
53635;BME280;39542;-34.932;138.594;2023-04-09T01:16:19;101210.14;;;20.34;60.00
53635;BME280;39542;-34.932;138.594;2023-04-09T01:16:59;101208.37;;;20.31;60.23
53635;BME280;39542;-34.932;138.594;2023-04-09T01:17:39;101209.38;;;20.32;60.28
53635;BME280;39542;-34.932;138.594;2023-04-09T01:18:20;101210.89;;;20.33;60.21
53635;BME280;39542;-34.932;138.594;2023-04-09T01:19:00;101206.65;;;20.30;60.55
53635;BME280;39542;-34.932;138.594;2023-04-09T01:19:57;101206.30;;;20.29;60.72
53635;BME280;39542;-34.932;138.594;2023-04-09T01:20:38;101205.71;;;20.32;60.74
53635;BME280;39542;-34.932;138.594;2023-04-09T01:21:16;101206.58;;;20.31;60.98
53635;BME280;39542;-34.932;138.594;2023-04-09T01:21:51;101206.74;;;20.33;60.91
53635;BME280;39542;-34.932;138.594;2023-04-09T01:22:37;101207.17;;;20.32;60.71
53635;BME280;39542;-34.932;138.594;2023-04-09T01:23:23;101204.85;;;20.37;60.57
53635;BME280;39542;-34.932;138.594;2023-04-09T01:27:25;101203.10;;;20.40;60.36
53635;BME280;39542;-34.932;138.594;2023-04-09T01:28:24;101203.68;;;20.40;60.39
53635;BME280;39542;-34.932;138.594;2023-04-09T01:29:01;101200.15;;;20.50;60.41
53635;BME280;39542;-34.932;138.594;2023-04-09T01:29:43;101201.81;;;20.57;60.20
53635;BME280;39542;-34.932;138.594;2023-04-09T01:30:20;101201.81;;;20.64;59.98
53635;BME280;39542;-34.932;138.594;2023-04-09T01:30:59;101200.47;;;20.69;59.88
53635;BME280;39542;-34.932;138.594;2023-04-09T01:31:38;101200.55;;;20.74;59.75
53635;BME280;39542;-34.932;138.594;2023-04-09T01:32:15;101199.72;;;20.85;59.60
53635;BME280;39542;-34.932;138.594;2023-04-09T01:32:53;101199.17;;;20.89;59.41
53635;BME280;39542;-34.932;138.594;2023-04-09T01:33:32;101197.43;;;20.94;59.27
53635;BME280;39542;-34.932;138.594;2023-04-09T01:34:10;101198.17;;;20.97;59.20
53635;BME280;39542;-34.932;138.594;2023-04-09T01:34:46;101199.23;;;21.03;59.01
53635;BME280;39542;-34.932;138.594;2023-04-09T01:35:22;101199.55;;;21.06;58.94
53635;BME280;39542;-34.932;138.594;2023-04-09T01:35:58;101197.10;;;21.12;58.87
53635;BME280;39542;-34.932;138.594;2023-04-09T01:36:33;101197.69;;;21.15;58.84
53635;BME280;39542;-34.932;138.594;2023-04-09T01:37:09;101195.73;;;21.12;58.90
53635;BME280;39542;-34.932;138.594;2023-04-09T01:37:44;101198.08;;;21.05;59.01
53635;BME280;39542;-34.932;138.594;2023-04-09T01:38:20;101194.68;;;20.98;59.15
53635;BME280;39542;-34.932;138.594;2023-04-09T01:38:56;101194.94;;;20.93;59.33
53635;BME280;39542;-34.932;138.594;2023-04-09T01:39:33;101194.75;;;20.88;59.47
53635;BME280;39542;-34.932;138.594;2023-04-09T01:40:10;101193.61;;;20.85;59.51
53635;BME280;39542;-34.932;138.594;2023-04-09T01:40:45;101193.56;;;20.77;59.71
53635;BME280;39542;-34.932;138.594;2023-04-09T01:41:21;101193.40;;;20.73;59.79
53635;BME280;39542;-34.932;138.594;2023-04-09T01:41:56;101192.49;;;20.65;59.88
53635;BME280;39542;-34.932;138.594;2023-04-09T01:42:31;101189.59;;;20.60;60.00
53635;BME280;39542;-34.932;138.594;2023-04-09T01:43:07;101186.84;;;20.58;60.11
53635;BME280;39542;-34.932;138.594;2023-04-09T01:43:42;101184.69;;;20.58;60.04
53635;BME280;39542;-34.932;138.594;2023-04-09T01:44:17;101186.77;;;20.59;60.10
53635;BME280;39542;-34.932;138.594;2023-04-09T01:44:53;101183.02;;;20.59;60.08
53635;BME280;39542;-34.932;138.594;2023-04-09T01:45:28;101186.60;;;20.57;60.07
53635;BME280;39542;-34.932;138.594;2023-04-09T01:46:03;101185.55;;;20.56;60.05
53635;BME280;39542;-34.932;138.594;2023-04-09T01:46:40;101184.97;;;20.51;60.09
53635;BME280;39542;-34.932;138.594;2023-04-09T01:47:14;101184.78;;;20.55;60.13
53635;BME280;39542;-34.932;138.594;2023-04-09T01:47:49;101185.04;;;20.52;60.18
53635;BME280;39542;-34.932;138.594;2023-04-09T01:48:24;101183.73;;;20.56;60.11
53635;BME280;39542;-34.932;138.594;2023-04-09T01:49:05;101186.23;;;20.52;60.20
53635;BME280;39542;-34.932;138.594;2023-04-09T01:49:40;101188.10;;;20.52;60.32
53635;BME280;39542;-34.932;138.594;2023-04-09T01:50:17;101189.78;;;20.53;60.31
53635;BME280;39542;-34.932;138.594;2023-04-09T01:50:51;101189.81;;;20.54;60.22
53635;BME280;39542;-34.932;138.594;2023-04-09T01:51:25;101188.21;;;20.52;60.28
53635;BME280;39542;-34.932;138.594;2023-04-09T01:52:00;101187.13;;;20.47;60.44
53635;BME280;39542;-34.932;138.594;2023-04-09T01:52:35;101186.10;;;20.48;60.38
53635;BME280;39542;-34.932;138.594;2023-04-09T01:53:09;101185.24;;;20.47;60.41
53635;BME280;39542;-34.932;138.594;2023-04-09T01:53:44;101185.62;;;20.45;60.48
53635;BME280;39542;-34.932;138.594;2023-04-09T01:54:18;101181.76;;;20.45;60.48
53635;BME280;39542;-34.932;138.594;2023-04-09T01:54:52;101186.27;;;20.46;60.48
53635;BME280;39542;-34.932;138.594;2023-04-09T01:55:26;101184.16;;;20.45;60.45
53635;BME280;39542;-34.932;138.594;2023-04-09T01:56:01;101182.09;;;20.43;60.42
53635;BME280;39542;-34.932;138.594;2023-04-09T01:56:44;101183.52;;;20.46;60.34
53635;BME280;39542;-34.932;138.594;2023-04-09T01:57:19;101180.35;;;20.44;60.38
53635;BME280;39542;-34.932;138.594;2023-04-09T01:57:53;101180.11;;;20.41;60.40
53635;BME280;39542;-34.932;138.594;2023-04-09T01:58:28;101179.83;;;20.46;60.31
53635;BME280;39542;-34.932;138.594;2023-04-09T01:59:02;101178.18;;;20.50;60.18
53635;BME280;39542;-34.932;138.594;2023-04-09T01:59:37;101176.30;;;20.48;60.23
53635;BME280;39542;-34.932;138.594;2023-04-09T02:00:12;101172.95;;;20.46;60.31
53635;BME280;39542;-34.932;138.594;2023-04-09T02:00:49;101175.03;;;20.46;60.39
53635;BME280;39542;-34.932;138.594;2023-04-09T02:01:31;101171.08;;;20.47;60.28
53635;BME280;39542;-34.932;138.594;2023-04-09T02:02:13;101173.24;;;20.47;60.30
53635;BME280;39542;-34.932;138.594;2023-04-09T02:02:58;101172.93;;;20.48;60.35
53635;BME280;39542;-34.932;138.594;2023-04-09T02:03:37;101172.53;;;20.43;60.44
53635;BME280;39542;-34.932;138.594;2023-04-09T02:04:21;101171.81;;;20.45;60.39
53635;BME280;39542;-34.932;138.594;2023-04-09T02:04:58;101172.19;;;20.43;60.51
53635;BME280;39542;-34.932;138.594;2023-04-09T02:05:37;101170.29;;;20.43;60.46
53635;BME280;39542;-34.932;138.594;2023-04-09T02:06:19;101170.04;;;20.43;60.44
53635;BME280;39542;-34.932;138.594;2023-04-09T02:07:03;101167.39;;;20.43;60.44
53635;BME280;39542;-34.932;138.594;2023-04-09T02:07:41;101168.28;;;20.44;60.43
53635;BME280;39542;-34.932;138.594;2023-04-09T02:08:19;101165.87;;;20.44;60.47
53635;BME280;39542;-34.932;138.594;2023-04-09T02:08:54;101165.00;;;20.48;60.33
53635;BME280;39542;-34.932;138.594;2023-04-09T02:09:33;101166.34;;;20.47;60.28
53635;BME280;39542;-34.932;138.594;2023-04-09T02:10:10;101164.66;;;20.48;60.26
53635;BME280;39542;-34.932;138.594;2023-04-09T02:10:50;101164.07;;;20.48;60.23
53635;BME280;39542;-34.932;138.594;2023-04-09T02:11:28;101162.72;;;20.47;60.23
53635;BME280;39542;-34.932;138.594;2023-04-09T02:12:08;101159.76;;;20.44;60.21
53635;BME280;39542;-34.932;138.594;2023-04-09T02:12:47;101162.35;;;20.44;60.26
53635;BME280;39542;-34.932;138.594;2023-04-09T02:13:26;101163.64;;;20.48;60.13
53635;BME280;39542;-34.932;138.594;2023-04-09T02:14:01;101162.02;;;20.46;60.11
53635;BME280;39542;-34.932;138.594;2023-04-09T02:14:36;101162.64;;;20.44;60.16
53635;BME280;39542;-34.932;138.594;2023-04-09T02:15:12;101161.35;;;20.42;60.24
53635;BME280;39542;-34.932;138.594;2023-04-09T02:15:47;101159.26;;;20.43;60.19
53635;BME280;39542;-34.932;138.594;2023-04-09T02:16:22;101158.78;;;20.46;60.19
53635;BME280;39542;-34.932;138.594;2023-04-09T02:17:00;101160.96;;;20.47;60.16
53635;BME280;39542;-34.932;138.594;2023-04-09T02:17:34;101160.19;;;20.42;60.30
53635;BME280;39542;-34.932;138.594;2023-04-09T02:18:23;101157.76;;;20.39;60.30
53635;BME280;39542;-34.932;138.594;2023-04-09T02:18:58;101159.17;;;20.47;60.10
53635;BME280;39542;-34.932;138.594;2023-04-09T02:19:41;101162.83;;;20.45;60.11
53635;BME280;39542;-34.932;138.594;2023-04-09T02:20:17;101157.48;;;20.44;60.01
53635;BME280;39542;-34.932;138.594;2023-04-09T02:20:53;101156.71;;;20.47;59.99
53635;BME280;39542;-34.932;138.594;2023-04-09T02:21:30;101156.49;;;20.44;60.00
53635;BME280;39542;-34.932;138.594;2023-04-09T02:22:06;101155.46;;;20.43;60.01
53635;BME280;39542;-34.932;138.594;2023-04-09T02:22:40;101154.56;;;20.43;60.00
53635;BME280;39542;-34.932;138.594;2023-04-09T02:23:16;101155.26;;;20.40;60.06
53635;BME280;39542;-34.932;138.594;2023-04-09T02:23:50;101151.85;;;20.43;59.98
53635;BME280;39542;-34.932;138.594;2023-04-09T02:24:25;101152.45;;;20.41;60.11
53635;BME280;39542;-34.932;138.594;2023-04-09T02:24:59;101153.27;;;20.45;60.02
53635;BME280;39542;-34.932;138.594;2023-04-09T02:25:34;101152.96;;;20.46;60.02
53635;BME280;39542;-34.932;138.594;2023-04-09T02:26:09;101153.73;;;20.45;60.05
53635;BME280;39542;-34.932;138.594;2023-04-09T02:26:43;101153.00;;;20.47;59.93
53635;BME280;39542;-34.932;138.594;2023-04-09T02:27:18;101153.42;;;20.45;60.00
53635;BME280;39542;-34.932;138.594;2023-04-09T02:27:53;101154.67;;;20.46;59.90
53635;BME280;39542;-34.932;138.594;2023-04-09T02:28:30;101157.76;;;20.44;59.90
53635;BME280;39542;-34.932;138.594;2023-04-09T02:29:04;101153.91;;;20.45;59.89
53635;BME280;39542;-34.932;138.594;2023-04-09T02:29:39;101154.88;;;20.41;59.97
53635;BME280;39542;-34.932;138.594;2023-04-09T02:30:14;101156.16;;;20.38;60.01
53635;BME280;39542;-34.932;138.594;2023-04-09T02:30:48;101154.75;;;20.37;60.08
53635;BME280;39542;-34.932;138.594;2023-04-09T02:31:22;101155.22;;;20.39;59.91
53635;BME280;39542;-34.932;138.594;2023-04-09T02:31:57;101157.02;;;20.41;59.91
53635;BME280;39542;-34.932;138.594;2023-04-09T02:32:31;101155.32;;;20.36;59.98
53635;BME280;39542;-34.932;138.594;2023-04-09T02:33:05;101153.38;;;20.39;59.96
53635;BME280;39542;-34.932;138.594;2023-04-09T02:33:40;101155.93;;;20.37;59.93
53635;BME280;39542;-34.932;138.594;2023-04-09T02:34:14;101151.59;;;20.31;60.04
53635;BME280;39542;-34.932;138.594;2023-04-09T02:34:48;101153.45;;;20.38;59.85
53635;BME280;39542;-34.932;138.594;2023-04-09T02:35:23;101152.82;;;20.40;59.88
53635;BME280;39542;-34.932;138.594;2023-04-09T02:35:57;101154.08;;;20.38;59.91
53635;BME280;39542;-34.932;138.594;2023-04-09T02:36:31;101150.77;;;20.45;59.77
53635;BME280;39542;-34.932;138.594;2023-04-09T02:37:06;101156.06;;;20.45;59.75
53635;BME280;39542;-34.932;138.594;2023-04-09T02:37:40;101153.06;;;20.43;59.90
53635;BME280;39542;-34.932;138.594;2023-04-09T02:38:14;101154.85;;;20.37;59.99
53635;BME280;39542;-34.932;138.594;2023-04-09T02:38:49;101154.21;;;20.36;60.01
53635;BME280;39542;-34.932;138.594;2023-04-09T02:39:23;101152.12;;;20.41;59.85
53635;BME280;39542;-34.932;138.594;2023-04-09T02:39:58;101151.23;;;20.41;59.86
53635;BME280;39542;-34.932;138.594;2023-04-09T02:40:33;101152.75;;;20.37;59.93
53635;BME280;39542;-34.932;138.594;2023-04-09T02:41:07;101150.25;;;20.41;59.83
53635;BME280;39542;-34.932;138.594;2023-04-09T02:41:41;101148.46;;;20.36;59.83
53635;BME280;39542;-34.932;138.594;2023-04-09T02:42:16;101146.32;;;20.38;59.84
53635;BME280;39542;-34.932;138.594;2023-04-09T02:42:51;101149.63;;;20.41;59.79
53635;BME280;39542;-34.932;138.594;2023-04-09T02:43:25;101149.18;;;20.42;59.82
53635;BME280;39542;-34.932;138.594;2023-04-09T02:43:59;101145.09;;;20.44;59.73
53635;BME280;39542;-34.932;138.594;2023-04-09T02:44:34;101143.67;;;20.40;59.77
53635;BME280;39542;-34.932;138.594;2023-04-09T02:45:09;101144.68;;;20.37;59.82
53635;BME280;39542;-34.932;138.594;2023-04-09T02:45:43;101145.25;;;20.37;59.83
53635;BME280;39542;-34.932;138.594;2023-04-09T02:46:18;101143.71;;;20.38;59.83
53635;BME280;39542;-34.932;138.594;2023-04-09T02:46:52;101142.77;;;20.41;59.79
53635;BME280;39542;-34.932;138.594;2023-04-09T02:47:27;101141.45;;;20.37;59.87
53635;BME280;39542;-34.932;138.594;2023-04-09T02:48:01;101142.25;;;20.34;59.85
53635;BME280;39542;-34.932;138.594;2023-04-09T02:48:35;101139.69;;;20.44;59.63
53635;BME280;39542;-34.932;138.594;2023-04-09T02:49:09;101141.30;;;20.37;59.77
53635;BME280;39542;-34.932;138.594;2023-04-09T02:49:44;101141.56;;;20.39;59.68
53635;BME280;39542;-34.932;138.594;2023-04-09T02:50:19;101141.16;;;20.37;59.77
53635;BME280;39542;-34.932;138.594;2023-04-09T02:50:53;101138.93;;;20.39;59.74
53635;BME280;39542;-34.932;138.594;2023-04-09T02:51:27;101137.78;;;20.38;59.78
53635;BME280;39542;-34.932;138.594;2023-04-09T02:52:02;101137.79;;;20.35;59.82
53635;BME280;39542;-34.932;138.594;2023-04-09T02:52:36;101133.51;;;20.48;59.59
53635;BME280;39542;-34.932;138.594;2023-04-09T02:53:11;101134.56;;;20.45;59.49
53635;BME280;39542;-34.932;138.594;2023-04-09T02:53:46;101134.38;;;20.50;59.45
53635;BME280;39542;-34.932;138.594;2023-04-09T02:54:20;101132.46;;;20.46;59.48
53635;BME280;39542;-34.932;138.594;2023-04-09T02:54:54;101130.40;;;20.44;59.63
53635;BME280;39542;-34.932;138.594;2023-04-09T02:55:28;101131.26;;;20.52;59.55
53635;BME280;39542;-34.932;138.594;2023-04-09T02:56:03;101130.19;;;20.48;59.77
53635;BME280;39542;-34.932;138.594;2023-04-09T02:56:37;101128.30;;;20.42;60.08
53635;BME280;39542;-34.932;138.594;2023-04-09T02:57:12;101131.11;;;20.45;60.21
53635;BME280;39542;-34.932;138.594;2023-04-09T02:57:47;101130.73;;;20.43;60.48
53635;BME280;39542;-34.932;138.594;2023-04-09T02:58:21;101128.57;;;20.45;60.58
53635;BME280;39542;-34.932;138.594;2023-04-09T02:58:55;101128.68;;;20.49;60.51
53635;BME280;39542;-34.932;138.594;2023-04-09T02:59:29;101126.95;;;20.45;60.60
53635;BME280;39542;-34.932;138.594;2023-04-09T03:00:04;101128.69;;;20.49;60.63
53635;BME280;39542;-34.932;138.594;2023-04-09T03:00:38;101126.38;;;20.50;60.63
53635;BME280;39542;-34.932;138.594;2023-04-09T03:01:13;101126.23;;;20.46;60.59
53635;BME280;39542;-34.932;138.594;2023-04-09T03:01:47;101126.69;;;20.49;60.63
53635;BME280;39542;-34.932;138.594;2023-04-09T03:02:21;101126.31;;;20.50;60.41
53635;BME280;39542;-34.932;138.594;2023-04-09T03:02:56;101124.01;;;20.56;60.46
53635;BME280;39542;-34.932;138.594;2023-04-09T03:03:31;101123.35;;;20.54;60.58
53635;BME280;39542;-34.932;138.594;2023-04-09T03:04:05;101123.91;;;20.59;60.51
53635;BME280;39542;-34.932;138.594;2023-04-09T03:04:39;101122.87;;;20.52;60.63